createdAt,value
2022-07-29T00:00:21.661Z,99.90
2022-07-29T00:02:52.011Z,99.90
2022-07-29T00:05:20.099Z,99.90
2022-07-29T00:07:48.325Z,99.90
2022-07-29T00:10:16.165Z,99.90
2022-07-29T00:12:44.071Z,99.90
2022-07-29T00:15:12.298Z,99.90
2022-07-29T00:17:40.173Z,99.90
2022-07-29T00:20:08.728Z,99.90
2022-07-29T00:22:39.806Z,99.90
2022-07-29T00:25:09.222Z,99.90
2022-07-29T00:27:38.274Z,99.90
2022-07-29T00:30:08.614Z,99.90
2022-07-29T00:32:36.616Z,99.90
2022-07-29T00:35:24.705Z,99.90
2022-07-29T00:37:52.820Z,99.90
2022-07-29T00:40:23.557Z,99.90
2022-07-29T00:42:52.772Z,99.90
2022-07-29T00:45:21.140Z,99.90
2022-07-29T00:47:49.610Z,99.90
2022-07-29T00:50:18.012Z,99.90
2022-07-29T00:52:46.062Z,99.90
2022-07-29T00:55:17.041Z,99.90
2022-07-29T00:57:46.103Z,99.90
2022-07-29T01:00:18.432Z,99.90
2022-07-29T01:02:49.304Z,99.90
2022-07-29T01:05:22.194Z,99.90
2022-07-29T01:07:53.548Z,99.90
2022-07-29T01:10:22.930Z,99.90
2022-07-29T01:12:53.833Z,99.90
2022-07-29T01:15:22.389Z,99.90
2022-07-29T01:18:09.840Z,99.90
2022-07-29T01:20:43.951Z,99.90
2022-07-29T01:23:14.586Z,99.90
2022-07-29T01:26:09.392Z,99.90
2022-07-29T01:29:07.571Z,99.90
2022-07-29T01:32:02.571Z,99.90
2022-07-29T01:34:35.661Z,99.90
2022-07-29T01:37:15.187Z,99.90
2022-07-29T01:39:44.299Z,99.90
2022-07-29T01:42:26.625Z,99.90
2022-07-29T01:45:05.505Z,99.90
2022-07-29T01:47:40.128Z,99.90
2022-07-29T01:50:12.336Z,99.90
2022-07-29T01:52:58.139Z,99.90
2022-07-29T01:55:30.659Z,99.90
2022-07-29T01:58:01.103Z,99.90
2022-07-29T02:00:32.800Z,99.90
2022-07-29T02:03:05.161Z,99.90
2022-07-29T02:05:35.199Z,99.90
2022-07-29T02:08:05.269Z,99.90
2022-07-29T02:10:38.217Z,99.90
2022-07-29T02:13:06.820Z,99.90
2022-07-29T02:15:36.583Z,99.90
2022-07-29T02:18:13.968Z,99.90
2022-07-29T02:20:46.840Z,99.90
2022-07-29T02:23:17.639Z,99.90
2022-07-29T02:25:45.893Z,99.90
2022-07-29T02:28:16.169Z,99.90
2022-07-29T02:30:46.650Z,99.90
2022-07-29T02:33:17.010Z,99.90
2022-07-29T02:35:46.172Z,99.90
2022-07-29T02:38:35.840Z,99.90
2022-07-29T02:41:09.070Z,99.90
2022-07-29T02:43:37.692Z,99.90
2022-07-29T02:46:28.124Z,99.90
2022-07-29T02:49:02.511Z,99.90
2022-07-29T02:51:42.571Z,99.90
2022-07-29T02:54:22.427Z,99.90
2022-07-29T02:56:53.708Z,99.90
2022-07-29T02:59:26.148Z,99.90
2022-07-29T03:01:56.595Z,99.90
2022-07-29T03:04:27.046Z,99.90
2022-07-29T03:06:56.128Z,99.90
2022-07-29T03:09:24.710Z,99.90
2022-07-29T03:11:56.796Z,99.90
2022-07-29T03:14:25.402Z,99.90
2022-07-29T03:16:53.660Z,99.90
2022-07-29T03:19:22.245Z,99.90
2022-07-29T03:21:50.505Z,99.90
2022-07-29T03:24:34.750Z,99.90
2022-07-29T03:27:04.059Z,99.90
2022-07-29T03:29:33.622Z,99.90
2022-07-29T03:32:08.067Z,99.90
2022-07-29T03:34:38.582Z,99.90
2022-07-29T03:37:07.273Z,99.90
2022-07-29T03:39:40.932Z,99.90
2022-07-29T03:42:12.939Z,99.90
2022-07-29T03:44:45.149Z,99.90
2022-07-29T03:47:16.006Z,99.90
2022-07-29T03:49:47.703Z,99.90
2022-07-29T03:52:15.872Z,99.90
2022-07-29T03:54:44.164Z,99.90
2022-07-29T03:57:13.039Z,99.90
2022-07-29T03:59:41.469Z,99.90
2022-07-29T04:02:12.150Z,99.90
2022-07-29T04:04:40.137Z,99.90
2022-07-29T04:07:08.075Z,99.90
2022-07-29T04:09:35.845Z,99.90
2022-07-29T04:12:04.494Z,99.90
2022-07-29T04:14:33.929Z,99.90
2022-07-29T04:17:03.341Z,99.90
2022-07-29T04:19:32.295Z,99.90
2022-07-29T04:22:01.106Z,99.90
2022-07-29T04:24:29.210Z,99.90
2022-07-29T04:26:57.209Z,99.90
2022-07-29T04:29:25.083Z,99.90
2022-07-29T04:31:53.012Z,99.90
2022-07-29T04:34:21.242Z,99.90
2022-07-29T04:36:49.118Z,99.90
2022-07-29T04:39:22.686Z,99.90
2022-07-29T04:41:52.535Z,99.90
2022-07-29T04:44:28.638Z,99.90
2022-07-29T04:46:57.903Z,99.90
2022-07-29T04:49:26.259Z,99.90
2022-07-29T04:51:54.220Z,99.90
2022-07-29T04:54:21.996Z,99.90
2022-07-29T04:56:49.845Z,99.90
2022-07-29T04:59:17.679Z,99.90
2022-07-29T05:01:45.763Z,99.90
2022-07-29T05:04:14.111Z,99.90
2022-07-29T05:06:42.164Z,99.90
2022-07-29T05:09:09.960Z,99.90
2022-07-29T05:11:37.840Z,99.90
2022-07-29T05:14:06.047Z,99.90
2022-07-29T05:16:34.485Z,99.90
2022-07-29T05:19:02.526Z,99.90
2022-07-29T05:21:30.317Z,99.90
2022-07-29T05:23:58.264Z,99.90
2022-07-29T05:26:26.183Z,99.90
2022-07-29T05:28:54.918Z,99.90
2022-07-29T05:31:22.807Z,99.90
2022-07-29T05:33:50.717Z,99.90
2022-07-29T05:36:18.671Z,99.90
2022-07-29T05:38:46.848Z,99.90
2022-07-29T05:41:14.704Z,99.90
2022-07-29T05:43:42.696Z,99.90
2022-07-29T05:46:10.726Z,99.90
2022-07-29T05:48:39.917Z,99.90
2022-07-29T05:51:07.758Z,99.90
2022-07-29T05:53:35.616Z,99.90
2022-07-29T05:56:06.866Z,99.90
2022-07-29T05:58:34.855Z,99.90
2022-07-29T06:01:02.784Z,99.90
2022-07-29T06:03:31.309Z,99.90
2022-07-29T06:05:59.212Z,99.90
2022-07-29T06:08:27.235Z,99.90
2022-07-29T06:10:55.376Z,99.90
2022-07-29T06:13:23.240Z,99.90
2022-07-29T06:15:51.569Z,99.90
2022-07-29T06:18:37.917Z,99.90
2022-07-29T06:21:10.751Z,99.90
2022-07-29T06:23:39.663Z,99.90
2022-07-29T06:26:07.725Z,99.90
2022-07-29T06:28:35.623Z,99.90
2022-07-29T06:31:03.614Z,99.90
2022-07-29T06:33:31.525Z,99.90
2022-07-29T06:35:59.335Z,99.90
2022-07-29T06:38:30.962Z,99.90
2022-07-29T06:41:11.185Z,99.90
2022-07-29T06:43:51.918Z,99.90
2022-07-29T06:46:24.103Z,99.90
2022-07-29T06:48:53.312Z,99.90
2022-07-29T06:51:23.917Z,99.90
2022-07-29T06:54:00.305Z,99.90
2022-07-29T06:56:38.554Z,99.90
2022-07-29T06:59:09.637Z,99.90
2022-07-29T07:01:39.082Z,99.90
2022-07-29T07:04:07.356Z,99.90
2022-07-29T07:06:35.567Z,99.90
2022-07-29T07:09:03.640Z,99.90
2022-07-29T07:11:31.758Z,99.90
2022-07-29T07:14:03.343Z,99.90
2022-07-29T07:16:33.023Z,99.90
2022-07-29T07:19:02.008Z,99.90
2022-07-29T07:21:30.953Z,99.90
2022-07-29T07:24:00.005Z,99.90
2022-07-29T07:26:28.717Z,99.90
2022-07-29T07:28:56.673Z,99.90
2022-07-29T07:31:24.723Z,99.90
2022-07-29T07:33:57.008Z,99.90
2022-07-29T07:36:25.035Z,99.90
2022-07-29T07:38:52.994Z,99.90
2022-07-29T07:41:21.596Z,99.90
2022-07-29T07:43:49.661Z,99.90
2022-07-29T07:46:17.885Z,99.90
2022-07-29T07:48:45.924Z,99.90
2022-07-29T07:51:14.085Z,99.90
2022-07-29T07:53:42.016Z,99.90
2022-07-29T07:56:11.794Z,99.90
2022-07-29T07:58:40.979Z,99.90
2022-07-29T08:01:10.021Z,99.90
2022-07-29T08:03:38.702Z,99.90
2022-07-29T08:06:07.036Z,99.90
2022-07-29T08:08:35.066Z,99.90
2022-07-29T08:11:09.144Z,99.90
2022-07-29T08:13:38.788Z,99.90
2022-07-29T08:16:14.394Z,99.90
2022-07-29T08:18:44.469Z,99.90
2022-07-29T08:21:14.789Z,99.90
2022-07-29T08:23:58.665Z,99.90
2022-07-29T08:26:26.810Z,99.90
2022-07-29T08:28:55.118Z,99.90
2022-07-29T08:31:23.201Z,99.90
2022-07-29T08:33:52.261Z,99.90
2022-07-29T08:36:22.050Z,99.90
2022-07-29T08:38:50.735Z,99.90
2022-07-29T08:41:20.385Z,99.90
2022-07-29T08:43:50.158Z,99.90
2022-07-29T08:46:18.678Z,99.90
2022-07-29T08:48:48.263Z,99.90
2022-07-29T08:51:19.025Z,99.90
2022-07-29T08:53:49.389Z,99.90
2022-07-29T08:56:19.092Z,99.90
2022-07-29T08:58:51.712Z,99.90
2022-07-29T09:01:36.462Z,99.90
2022-07-29T09:04:12.826Z,99.90
2022-07-29T09:06:44.950Z,99.90
2022-07-29T09:09:14.727Z,99.90
2022-07-29T09:11:43.780Z,99.90
2022-07-29T09:14:14.386Z,99.90
2022-07-29T09:16:55.477Z,99.90
2022-07-29T09:19:32.808Z,99.90
2022-07-29T09:22:03.261Z,99.90
2022-07-29T09:24:49.725Z,99.90
2022-07-29T09:27:27.065Z,99.90
2022-07-29T09:30:11.463Z,99.90
2022-07-29T09:33:02.267Z,98.70
2022-07-29T09:35:31.276Z,96.00
2022-07-29T09:38:10.544Z,96.50
2022-07-29T09:40:38.689Z,95.00
2022-07-29T09:43:13.913Z,96.00
2022-07-29T09:45:42.190Z,95.50
2022-07-29T09:48:21.569Z,95.40
2022-07-29T09:50:50.806Z,94.90
2022-07-29T09:53:37.472Z,96.80
2022-07-29T09:56:06.693Z,98.40
2022-07-29T09:58:34.982Z,98.40
2022-07-29T10:01:04.352Z,98.40
2022-07-29T10:03:32.306Z,97.50
2022-07-29T10:06:14.622Z,96.90
2022-07-29T10:08:42.986Z,98.20
2022-07-29T10:11:14.921Z,98.00
2022-07-29T10:13:43.433Z,98.50
2022-07-29T10:16:12.155Z,98.40
2022-07-29T10:18:44.736Z,98.60
2022-07-29T10:21:35.404Z,98.40
2022-07-29T10:24:02.217Z,98.10
2022-07-29T10:26:31.434Z,97.10
2022-07-29T10:28:59.322Z,97.30
2022-07-29T10:32:05.707Z,97.00
2022-07-29T10:35:00.254Z,97.10
2022-07-29T10:37:45.921Z,96.20
2022-07-29T10:40:57.291Z,96.30
2022-07-29T10:43:36.898Z,95.50
2022-07-29T10:46:07.344Z,95.80
2022-07-29T10:48:36.090Z,95.60
2022-07-29T10:51:09.328Z,94.00
2022-07-29T10:53:54.225Z,88.50
2022-07-29T10:56:31.875Z,90.00
2022-07-29T10:59:22.762Z,90.50
2022-07-29T11:01:53.540Z,91.90
2022-07-29T11:04:48.561Z,92.10
2022-07-29T11:07:18.372Z,91.90
2022-07-29T11:10:12.595Z,91.20
2022-07-29T11:12:42.012Z,92.30
2022-07-29T11:15:19.878Z,91.70
2022-07-29T11:17:53.993Z,91.80
2022-07-29T11:20:49.684Z,92.40
2022-07-29T11:23:27.526Z,91.10
2022-07-29T11:26:21.152Z,90.60
2022-07-29T11:29:12.049Z,88.90
2022-07-29T11:31:55.497Z,88.90
2022-07-29T11:34:27.983Z,90.30
2022-07-29T11:37:17.808Z,89.60
2022-07-29T11:40:01.508Z,86.00
2022-07-29T11:42:41.739Z,84.80
2022-07-29T11:45:42.592Z,87.30
2022-07-29T11:48:31.645Z,88.60
2022-07-29T11:51:00.708Z,86.50
2022-07-29T11:53:32.948Z,85.30
2022-07-29T11:56:02.624Z,84.60
2022-07-29T11:58:32.266Z,81.10
2022-07-29T12:01:04.627Z,82.90
2022-07-29T12:03:35.939Z,84.30
2022-07-29T12:06:15.050Z,81.30
2022-07-29T12:08:44.371Z,78.20
2022-07-29T12:11:37.681Z,79.40
2022-07-29T12:14:08.555Z,79.00
2022-07-29T12:16:38.257Z,80.90
2022-07-29T12:19:06.321Z,80.10
2022-07-29T12:21:56.341Z,79.20
2022-07-29T12:24:26.796Z,80.60
2022-07-29T12:26:59.268Z,78.40
2022-07-29T12:29:34.656Z,79.20
2022-07-29T12:32:05.386Z,79.90
2022-07-29T12:34:34.719Z,85.70
2022-07-29T12:37:03.242Z,87.50
2022-07-29T12:39:31.274Z,89.20
2022-07-29T12:42:04.085Z,89.90
2022-07-29T12:44:50.054Z,89.50
2022-07-29T12:47:19.350Z,90.60
2022-07-29T12:49:47.954Z,90.70
2022-07-29T12:52:34.382Z,90.30
2022-07-29T12:55:02.933Z,89.20
2022-07-29T12:57:32.995Z,86.50
2022-07-29T13:00:11.595Z,85.00
2022-07-29T13:02:40.243Z,85.50
2022-07-29T13:05:09.879Z,88.00
2022-07-29T13:08:29.490Z,89.70
2022-07-29T13:10:26.242Z,90.40
2022-07-29T13:13:10.590Z,89.90
2022-07-29T13:15:41.180Z,87.90
2022-07-29T13:18:47.628Z,90.30
2022-07-29T13:21:16.817Z,90.00
2022-07-29T13:23:46.958Z,90.40
2022-07-29T13:26:17.214Z,88.30
2022-07-29T13:28:45.071Z,89.30
2022-07-29T13:31:13.065Z,88.30
2022-07-29T13:33:40.983Z,88.20
2022-07-29T13:36:08.920Z,88.20
2022-07-29T13:38:36.713Z,90.20
2022-07-29T13:41:04.612Z,90.10
2022-07-29T13:43:33.468Z,88.20
2022-07-29T13:46:01.381Z,89.60
2022-07-29T13:48:29.289Z,88.40
2022-07-29T13:50:57.936Z,87.70
2022-07-29T13:53:29.658Z,87.90
2022-07-29T13:55:57.537Z,88.00
2022-07-29T13:58:25.547Z,87.70
2022-07-29T14:00:53.493Z,89.00
2022-07-29T14:03:21.486Z,90.40
2022-07-29T14:05:49.331Z,90.40
2022-07-29T14:08:17.163Z,89.50
2022-07-29T14:10:45.553Z,89.40
2022-07-29T14:13:24.650Z,88.80
2022-07-29T14:15:53.931Z,89.50
2022-07-29T14:18:21.889Z,89.80
2022-07-29T14:20:50.539Z,91.40
2022-07-29T14:23:20.123Z,92.80
2022-07-29T14:25:49.402Z,95.10
2022-07-29T14:28:17.899Z,95.30
2022-07-29T14:30:45.857Z,94.90
2022-07-29T14:33:13.819Z,95.10
2022-07-29T14:35:41.670Z,94.70
2022-07-29T14:38:09.587Z,95.00
2022-07-29T14:40:37.657Z,95.50
2022-07-29T14:43:05.617Z,96.80
2022-07-29T14:45:33.610Z,96.60
2022-07-29T14:48:01.576Z,96.80
2022-07-29T14:50:32.412Z,97.30
2022-07-29T14:53:01.226Z,97.50
2022-07-29T14:55:29.706Z,97.80
2022-07-29T14:58:06.014Z,97.90
2022-07-29T15:00:37.926Z,98.30
2022-07-29T15:03:06.507Z,97.70
2022-07-29T15:05:39.714Z,98.40
2022-07-29T15:08:09.192Z,97.90
2022-07-29T15:10:37.446Z,98.30
2022-07-29T15:13:05.354Z,97.70
2022-07-29T15:15:33.271Z,97.70
2022-07-29T15:18:01.169Z,98.10
2022-07-29T15:20:29.218Z,98.90
2022-07-29T15:22:57.527Z,99.50
2022-07-29T15:25:28.381Z,99.90
2022-07-29T15:28:01.249Z,99.90
2022-07-29T15:30:33.381Z,99.90
2022-07-29T15:33:04.048Z,99.70
2022-07-29T15:35:32.626Z,99.60
2022-07-29T15:38:00.501Z,99.90
2022-07-29T15:40:28.623Z,99.90
2022-07-29T15:42:56.545Z,99.90
2022-07-29T15:45:24.464Z,99.90
2022-07-29T15:47:52.320Z,99.90
2022-07-29T15:50:21.264Z,99.90
2022-07-29T15:52:49.223Z,99.90
2022-07-29T15:55:17.162Z,99.90
2022-07-29T15:57:45.088Z,99.90
2022-07-29T16:00:18.172Z,99.90
2022-07-29T16:02:46.268Z,99.90
2022-07-29T16:05:14.297Z,99.90
2022-07-29T16:07:42.272Z,99.90
2022-07-29T16:10:10.222Z,99.90
2022-07-29T16:12:38.943Z,99.90
2022-07-29T16:15:10.440Z,99.90
2022-07-29T16:17:42.282Z,99.90
2022-07-29T16:20:10.835Z,99.90
2022-07-29T16:22:42.194Z,99.90
2022-07-29T16:25:10.243Z,99.90
2022-07-29T16:27:38.413Z,99.90
2022-07-29T16:40:20.232Z,99.90
2022-07-29T16:42:48.089Z,99.90
2022-07-29T16:45:18.066Z,99.90
2022-07-29T16:47:49.631Z,99.90
2022-07-29T16:50:17.915Z,99.90
2022-07-29T16:52:45.776Z,99.90
2022-07-29T16:55:13.601Z,99.90
2022-07-29T16:57:42.800Z,99.90
2022-07-29T17:00:11.404Z,99.90
2022-07-29T17:02:39.248Z,99.90
2022-07-29T17:05:08.326Z,99.90
2022-07-29T17:07:36.551Z,99.90
2022-07-29T17:10:05.392Z,99.90
2022-07-29T17:12:33.634Z,99.90
2022-07-29T17:15:01.438Z,99.90
2022-07-29T17:17:38.932Z,99.90
2022-07-29T17:20:09.183Z,99.90
2022-07-29T17:22:38.243Z,99.90
2022-07-29T17:25:08.208Z,99.90
2022-07-29T17:27:36.968Z,99.90
2022-07-29T17:30:06.400Z,99.90
2022-07-29T17:32:38.836Z,99.90
2022-07-29T17:35:25.738Z,99.90
2022-07-29T17:37:53.930Z,99.90
2022-07-29T17:40:21.987Z,99.90
2022-07-29T17:42:49.910Z,99.90
2022-07-29T17:45:18.079Z,99.90
2022-07-29T17:47:46.015Z,99.90
2022-07-29T17:50:13.861Z,99.90
2022-07-29T17:52:41.972Z,99.90
2022-07-29T17:55:10.627Z,99.90
2022-07-29T17:57:38.582Z,99.90
2022-07-29T18:00:08.172Z,99.90
2022-07-29T18:02:37.771Z,99.90
2022-07-29T18:05:06.066Z,99.90
2022-07-29T18:07:33.928Z,99.90
2022-07-29T18:10:01.959Z,99.90
2022-07-29T18:12:31.014Z,99.90
2022-07-29T18:14:58.851Z,99.90
2022-07-29T18:17:52.684Z,99.90
2022-07-29T18:20:15.002Z,99.90
2022-07-29T18:22:42.897Z,99.90
2022-07-29T18:25:11.956Z,99.90
2022-07-29T18:27:39.912Z,99.90
2022-07-29T18:30:08.234Z,99.90
2022-07-29T18:32:36.604Z,99.90
2022-07-29T18:35:05.885Z,99.90
2022-07-29T18:38:00.815Z,99.90
2022-07-29T18:40:26.516Z,99.90
2022-07-29T18:42:57.665Z,99.90
2022-07-29T18:45:28.261Z,99.90
2022-07-29T18:47:57.080Z,99.90
2022-07-29T18:50:50.876Z,99.90
2022-07-29T18:53:18.785Z,99.90
2022-07-29T18:55:46.794Z,99.90
2022-07-29T18:58:14.661Z,99.90
2022-07-29T19:00:42.557Z,99.90
2022-07-29T19:03:10.526Z,99.90
2022-07-29T19:05:38.564Z,99.90
2022-07-29T19:08:06.855Z,99.90
2022-07-29T19:10:34.803Z,99.90
2022-07-29T19:13:02.729Z,99.90
2022-07-29T19:15:55.518Z,99.90
2022-07-29T19:18:23.566Z,99.90
2022-07-29T19:20:51.430Z,99.90
2022-07-29T19:23:19.746Z,99.90
2022-07-29T19:25:53.717Z,99.90
2022-07-29T19:28:22.392Z,99.90
2022-07-29T19:30:50.459Z,99.90
2022-07-29T19:33:19.109Z,99.90
2022-07-29T19:35:50.376Z,99.90
2022-07-29T19:38:21.007Z,99.90
2022-07-29T19:40:49.014Z,99.90
2022-07-29T19:43:51.499Z,99.90
2022-07-29T19:46:05.120Z,99.90
2022-07-29T19:48:32.965Z,99.90
2022-07-29T19:51:00.909Z,99.90
2022-07-29T19:53:29.053Z,99.90
2022-07-29T19:55:57.097Z,99.90
2022-07-29T19:58:26.912Z,99.90
2022-07-29T20:00:55.439Z,99.90
2022-07-29T20:03:23.457Z,99.90
2022-07-29T20:05:52.832Z,99.90
2022-07-29T20:08:20.636Z,99.90
2022-07-29T20:10:48.516Z,99.90
2022-07-29T20:13:16.511Z,99.90
2022-07-29T20:15:44.525Z,99.90
2022-07-29T20:18:12.416Z,99.90
2022-07-29T20:20:40.246Z,99.90
2022-07-29T20:23:08.198Z,99.90
2022-07-29T20:25:36.813Z,99.90
2022-07-29T20:28:04.873Z,99.90
2022-07-29T20:30:32.682Z,99.90
2022-07-29T20:33:00.795Z,99.90
2022-07-29T20:35:28.711Z,99.90
2022-07-29T20:37:56.745Z,99.90
2022-07-29T20:40:25.939Z,99.90
2022-07-29T20:42:55.036Z,99.90
2022-07-29T20:45:23.687Z,99.90
2022-07-29T20:47:52.657Z,99.90
2022-07-29T20:50:23.860Z,99.90
2022-07-29T20:52:52.960Z,99.90
2022-07-29T20:55:21.245Z,99.90
2022-07-29T20:57:49.298Z,99.90
2022-07-29T21:00:17.391Z,99.90
2022-07-29T21:02:45.408Z,99.90
2022-07-29T21:05:13.333Z,99.90
2022-07-29T21:07:41.416Z,99.90
2022-07-29T21:10:09.618Z,99.90
2022-07-29T21:12:39.855Z,99.90
2022-07-29T21:15:08.422Z,99.90
2022-07-29T21:17:38.891Z,99.90
2022-07-29T21:20:08.665Z,99.90
2022-07-29T21:22:36.702Z,99.90
2022-07-29T21:25:05.068Z,99.90
2022-07-29T21:27:51.335Z,99.90
2022-07-29T21:30:19.274Z,99.90
2022-07-29T21:32:47.230Z,99.90
2022-07-29T21:35:30.300Z,99.90
2022-07-29T21:38:02.948Z,99.90
2022-07-29T21:40:30.866Z,99.90
2022-07-29T21:42:58.735Z,99.90
2022-07-29T21:45:27.389Z,99.90
2022-07-29T21:47:55.313Z,99.90
2022-07-29T21:50:23.166Z,99.90
2022-07-29T21:52:51.028Z,99.90
2022-07-29T21:55:19.313Z,99.90
2022-07-29T21:57:49.840Z,99.90
2022-07-29T22:00:17.796Z,99.90
2022-07-29T22:02:45.797Z,99.90
2022-07-29T22:05:14.970Z,99.90
2022-07-29T22:07:56.563Z,99.90
2022-07-29T22:10:26.853Z,99.90
2022-07-29T22:12:57.790Z,99.90
2022-07-29T22:15:29.185Z,99.90
2022-07-29T22:17:57.451Z,99.90
2022-07-29T22:20:25.677Z,99.90
2022-07-29T22:22:54.490Z,99.90
2022-07-29T22:25:22.799Z,99.90
2022-07-29T22:27:50.770Z,99.90
2022-07-29T22:30:18.998Z,99.90
2022-07-29T22:32:47.962Z,99.90
2022-07-29T22:35:16.693Z,99.90
2022-07-29T22:37:44.781Z,99.90
2022-07-29T22:40:12.716Z,99.90
2022-07-29T22:42:40.767Z,99.90
2022-07-29T22:45:10.382Z,99.90
2022-07-29T22:47:46.537Z,99.90
2022-07-29T22:50:17.176Z,99.90
2022-07-29T22:52:46.336Z,99.90
2022-07-29T22:55:14.604Z,99.90
2022-07-29T22:57:42.588Z,99.90
2022-07-29T23:00:11.334Z,99.90
2022-07-29T23:02:41.625Z,99.90
2022-07-29T23:05:10.803Z,99.90
2022-07-29T23:07:40.323Z,99.90
2022-07-29T23:10:11.170Z,99.90
2022-07-29T23:12:39.010Z,99.90
2022-07-29T23:15:07.840Z,99.90
2022-07-29T23:17:36.779Z,99.90
2022-07-29T23:20:10.974Z,99.90
2022-07-29T23:22:45.500Z,99.90
2022-07-29T23:25:13.433Z,99.90
2022-07-29T23:27:42.911Z,99.90
2022-07-29T23:30:12.131Z,99.90
2022-07-29T23:32:40.202Z,99.90
2022-07-29T23:35:08.757Z,99.90
2022-07-29T23:37:37.049Z,99.90
2022-07-29T23:40:06.239Z,99.90
2022-07-29T23:42:35.642Z,99.90
2022-07-29T23:45:04.528Z,99.90
2022-07-29T23:47:37.858Z,99.90
2022-07-29T23:50:12.006Z,99.90
2022-07-29T23:52:40.942Z,99.90
2022-07-29T23:55:36.480Z,99.90
2022-07-29T23:57:57.953Z,99.90
